Racine, Wisconsin
Current Conditions -  °F | °C
As of 1:53 PM on Wednesday 17 Dec 2014 (Local Time) from KRAC Reporting Station
Overcast Overcast  
Wind Chill: 17°   Ceiling: 2400
Heat Index: 27°   Visibility: 10mi
Dew Point: 16°   Wind: 12mph
Humidity: 63%   Direction: 290°WNW
Pressure: 30.2"   Gusts: 18mph
Location:  42.73°N, 87.79°W
Report Text: KRAC 171953Z AUTO 29010G16KT 10SM OVC024 M03/M09 A3020 RMK AO2 SLP234 T10281089
Loading
Personal Weather Stations






























Interactive Weather Map New forecast layout! Learn more

10-Day Weather Forecast

Advertisements
Track Severe Weather on mobile